Time;durP1;ratioP1;P1;durP2;ratioP2;P2;SDS_P1;SDS_P2;PMS_P1;PMS_P2;Temp;Humidity;BMP_temperature;BMP_pressure;BME280_temperature;BME280_humidity;BME280_pressure;Samples;Min_cycle;Max_cycle;Signal;HPM_P1;HPM_P2
2022/02/24 00:00:26;;;;;;;6.23;3.73;;;;;;;7.01;78.91;100867.91;5051078;28;20389;-77
2022/02/24 00:02:51;;;;;;;5.15;4.00;;;;;;;6.97;79.09;100861.28;5030262;28;20415;-77
2022/02/24 00:05:17;;;;;;;4.20;3.50;;;;;;;6.96;79.14;100854.22;5049916;28;20762;-77
2022/02/24 00:08:01;;;;;;;5.67;4.27;;;;;;;6.98;79.33;100857.53;5039118;28;20409;-78
2022/02/24 00:10:26;;;;;;;5.32;4.65;;;;;;;6.96;79.48;100858.78;5046910;28;20766;-77
2022/02/24 00:12:51;;;;;;;8.47;4.27;;;;;;;6.94;79.81;100859.03;5042245;28;20417;-77
2022/02/24 00:15:17;;;;;;;6.78;4.03;;;;;;;6.97;79.28;100860.44;5050254;28;20409;-77
2022/02/24 00:17:43;;;;;;;5.83;4.20;;;;;;;7.00;79.51;100851.94;5053497;28;20409;-78
2022/02/24 00:20:09;;;;;;;5.38;3.53;;;;;;;7.04;79.41;100855.88;5047372;28;20403;-77
2022/02/24 00:22:35;;;;;;;6.55;3.80;;;;;;;7.09;78.88;100850.66;5078666;28;20440;-78
2022/02/24 00:25:02;;;;;;;5.70;3.87;;;;;;;7.13;79.16;100846.50;5042507;28;20410;-78
2022/02/24 00:27:27;;;;;;;8.13;3.47;;;;;;;7.17;78.82;100853.97;5043990;28;20821;-77
2022/02/24 00:29:53;;;;;;;4.80;3.23;;;;;;;7.20;78.48;100850.84;5050336;28;20405;-78
2022/02/24 00:32:18;;;;;;;5.37;3.37;;;;;;;7.23;78.17;100849.59;5056971;28;20753;-78
2022/02/24 00:34:44;;;;;;;4.50;3.30;;;;;;;7.27;78.41;100848.13;5051903;28;20404;-78
2022/02/24 00:37:09;;;;;;;5.45;3.55;;;;;;;7.31;78.43;100846.63;5051263;28;20400;-77
2022/02/24 00:39:34;;;;;;;4.63;3.83;;;;;;;7.34;77.75;100845.41;5050969;28;20483;-77
2022/02/24 00:41:59;;;;;;;6.20;3.50;;;;;;;7.37;77.98;100836.88;5047729;28;20395;-78
2022/02/24 00:44:25;;;;;;;4.43;3.60;;;;;;;7.40;77.53;100844.53;5046902;28;20405;-78
2022/02/24 00:46:50;;;;;;;5.20;2.90;;;;;;;7.42;77.66;100847.84;5058138;28;20405;-77
2022/02/24 00:49:16;;;;;;;4.17;3.53;;;;;;;7.42;76.94;100837.88;5047829;28;20409;-77
2022/02/24 00:51:41;;;;;;;4.57;3.73;;;;;;;7.45;77.53;100837.44;5032852;28;20391;-77
2022/02/24 00:54:06;;;;;;;4.97;3.07;;;;;;;7.46;77.49;100831.03;5054834;28;20400;-77
2022/02/24 00:56:32;;;;;;;6.40;3.60;;;;;;;7.49;76.83;100833.28;5041564;28;20541;-77
2022/02/24 00:58:57;;;;;;;5.80;2.97;;;;;;;7.51;76.73;100825.78;5046449;28;20413;-78
2022/02/24 01:01:23;;;;;;;4.23;3.27;;;;;;;7.53;77.00;100822.91;5047666;28;20407;-77
2022/02/24 01:03:48;;;;;;;4.70;3.10;;;;;;;7.54;77.37;100819.16;5078746;28;20416;-77
2022/02/24 01:06:13;;;;;;;3.33;2.30;;;;;;;7.56;76.55;100814.38;5041540;28;20434;-77
2022/02/24 01:08:39;;;;;;;3.40;2.80;;;;;;;7.55;76.34;100815.41;5041893;28;20429;-78
2022/02/24 01:11:04;;;;;;;2.53;1.95;;;;;;;7.58;76.66;100813.09;5049942;28;20877;-77
2022/02/24 01:13:30;;;;;;;4.37;2.60;;;;;;;7.56;76.23;100807.13;5046963;28;20452;-77
2022/02/24 01:15:55;;;;;;;2.50;2.27;;;;;;;7.57;76.16;100800.69;5035458;28;20411;-77
2022/02/24 01:18:21;;;;;;;3.17;2.20;;;;;;;7.58;76.86;100804.19;5047248;28;20971;-77
2022/02/24 01:20:46;;;;;;;4.82;2.75;;;;;;;7.57;77.10;100799.84;5047043;28;20476;-78
2022/02/24 01:23:11;;;;;;;5.47;3.63;;;;;;;7.55;77.32;100793.81;5048289;28;20393;-77
2022/02/24 01:25:37;;;;;;;5.53;3.93;;;;;;;7.50;77.26;100790.97;5038855;28;20400;-77
2022/02/24 01:28:02;;;;;;;11.95;5.97;;;;;;;7.46;77.42;100795.13;5046321;28;20436;-77
2022/02/24 01:30:28;;;;;;;6.70;3.63;;;;;;;7.43;77.50;100784.78;5044360;28;20415;-77
2022/02/24 01:32:53;;;;;;;7.97;4.03;;;;;;;7.43;77.57;100782.09;5050122;28;20760;-78
2022/02/24 01:35:18;;;;;;;6.82;3.75;;;;;;;7.42;77.57;100783.13;5045339;28;20409;-78
2022/02/24 01:37:45;;;;;;;5.50;3.30;;;;;;;7.41;77.94;100770.72;5037403;28;20923;-78
2022/02/24 01:40:11;;;;;;;8.15;4.05;;;;;;;7.38;78.39;100763.03;5044208;28;20831;-77
2022/02/24 01:42:37;;;;;;;5.00;3.72;;;;;;;7.36;78.51;100762.41;5048460;28;20404;-77
2022/02/24 01:45:03;;;;;;;4.00;3.63;;;;;;;7.32;77.97;100752.06;5051419;28;20394;-77
2022/02/24 01:47:29;;;;;;;6.13;2.97;;;;;;;7.29;78.46;100757.91;5049981;28;20432;-77
2022/02/24 01:49:54;;;;;;;3.87;3.20;;;;;;;7.28;78.09;100753.53;5037016;28;20426;-78
2022/02/24 01:52:20;;;;;;;4.27;3.23;;;;;;;7.24;78.57;100748.81;5032203;28;20476;-77
2022/02/24 01:54:48;;;;;;;6.10;3.28;;;;;;;7.25;78.42;100745.06;5047403;28;20483;-77
2022/02/24 01:57:13;;;;;;;4.40;2.88;;;;;;;7.25;78.73;100737.81;5048545;28;20412;-77
2022/02/24 01:59:38;;;;;;;3.43;2.60;;;;;;;7.27;78.44;100741.13;5041813;28;20415;-78
2022/02/24 02:02:05;;;;;;;4.73;2.80;;;;;;;7.29;77.80;100728.25;5037981;28;20395;-77
2022/02/24 02:04:30;;;;;;;4.20;2.80;;;;;;;7.31;77.94;100728.00;5039961;28;20411;-77
2022/02/24 02:06:56;;;;;;;3.47;2.83;;;;;;;7.29;78.24;100722.03;5038665;28;20492;-77
2022/02/24 02:09:21;;;;;;;3.60;2.70;;;;;;;7.28;78.82;100717.66;5063496;28;20412;-77
2022/02/24 02:11:47;;;;;;;3.73;2.80;;;;;;;7.28;78.67;100712.28;5055303;28;20404;-77
2022/02/24 02:14:13;;;;;;;3.35;2.63;;;;;;;7.29;78.85;100712.06;5053653;28;20393;-77
2022/02/24 02:16:47;;;;;;;5.45;2.92;;;;;;;7.29;78.71;100709.38;5053851;28;21115;-77
2022/02/24 02:19:12;;;;;;;3.37;3.07;;;;;;;7.27;79.28;100707.94;5043700;28;20425;-77
2022/02/24 02:21:38;;;;;;;2.87;2.57;;;;;;;7.27;79.35;100707.94;5038519;28;20881;-77
2022/02/24 02:24:04;;;;;;;3.50;2.50;;;;;;;7.28;79.16;100710.41;5036677;28;20410;-78
2022/02/24 02:26:31;;;;;;;4.25;2.30;;;;;;;7.30;79.67;100707.50;5035421;28;20478;-77
2022/02/24 02:28:57;;;;;;;2.55;2.35;;;;;;;7.31;78.76;100707.28;5051968;28;20413;-78
2022/02/24 02:31:22;;;;;;;3.38;2.28;;;;;;;7.35;78.54;100706.84;5054474;28;20454;-77
2022/02/24 02:33:47;;;;;;;3.40;2.37;;;;;;;7.36;78.51;100697.72;5054147;28;20405;-77
2022/02/24 02:36:13;;;;;;;4.50;2.03;;;;;;;7.38;78.31;100698.31;5048996;28;20399;-77
2022/02/24 02:38:38;;;;;;;5.67;2.30;;;;;;;7.37;78.23;100697.50;5081238;28;20479;-78
2022/02/24 02:41:04;;;;;;;2.27;2.07;;;;;;;7.40;77.88;100688.97;5042520;28;20489;-77
2022/02/24 02:43:29;;;;;;;3.10;2.53;;;;;;;7.43;77.85;100682.31;5049794;28;20401;-77
2022/02/24 02:45:54;;;;;;;3.47;2.50;;;;;;;7.43;77.79;100685.84;5051717;28;20455;-77
2022/02/24 02:48:19;;;;;;;7.63;2.20;;;;;;;7.41;77.85;100681.72;5048663;28;20790;-77
2022/02/24 02:50:45;;;;;;;2.60;2.40;;;;;;;7.39;77.64;100684.63;5044225;28;20409;-77
2022/02/24 02:53:10;;;;;;;3.77;2.40;;;;;;;7.36;77.11;100673.44;5038892;28;20724;-77
2022/02/24 02:55:36;;;;;;;3.73;2.70;;;;;;;7.39;77.25;100676.53;5053148;28;20397;-77
2022/02/24 02:58:01;;;;;;;2.60;2.33;;;;;;;7.40;77.50;100677.38;5048084;28;20417;-77
2022/02/24 03:00:27;;;;;;;4.53;2.63;;;;;;;7.39;77.28;100664.94;5049685;28;20417;-78
2022/02/24 03:02:53;;;;;;;3.13;2.60;;;;;;;7.36;77.27;100668.91;5039708;28;20754;-77
2022/02/24 03:05:18;;;;;;;4.83;2.67;;;;;;;7.31;77.32;100660.63;5058932;28;20524;-77
2022/02/24 03:07:43;;;;;;;2.77;2.40;;;;;;;7.36;77.40;100657.28;5046009;28;20556;-77
2022/02/24 03:10:09;;;;;;;2.85;2.58;;;;;;;7.38;77.49;100657.88;5034295;28;20436;-77
2022/02/24 03:12:36;;;;;;;5.50;2.75;;;;;;;7.35;77.62;100656.44;5047627;28;20789;-77
2022/02/24 03:15:08;;;;;;;2.72;2.30;;;;;;;7.36;77.88;100644.63;5060962;28;20418;-78
2022/02/24 03:17:34;;;;;;;4.25;2.35;;;;;;;7.37;78.03;100646.28;5047280;28;20407;-78
2022/02/24 03:19:59;;;;;;;3.03;2.77;;;;;;;7.38;78.04;100644.38;5052511;28;20738;-77
2022/02/24 03:22:24;;;;;;;3.30;2.70;;;;;;;7.35;77.72;100642.97;5049377;28;20497;-77
2022/02/24 03:24:50;;;;;;;3.23;2.80;;;;;;;7.32;77.98;100635.31;5051584;28;20394;-77
2022/02/24 03:27:15;;;;;;;4.10;2.50;;;;;;;7.28;77.72;100629.53;5054936;28;20411;-78
2022/02/24 03:29:40;;;;;;;5.38;2.72;;;;;;;7.27;77.61;100629.78;5042642;28;20865;-77
2022/02/24 03:32:06;;;;;;;3.70;2.30;;;;;;;7.26;77.58;100625.41;5056793;28;20391;-77
2022/02/24 03:34:32;;;;;;;4.37;3.00;;;;;;;7.25;77.50;100621.06;5047727;28;20414;-78
2022/02/24 03:36:57;;;;;;;3.20;2.40;;;;;;;7.23;77.24;100617.78;5037672;28;20390;-78
2022/02/24 03:39:22;;;;;;;2.45;2.17;;;;;;;7.19;77.96;100611.16;5048390;28;20417;-77
2022/02/24 03:41:48;;;;;;;2.53;2.33;;;;;;;7.17;77.98;100618.66;5042167;28;20441;-77
2022/02/24 03:44:13;;;;;;;2.57;2.30;;;;;;;7.12;77.94;100616.59;5050393;28;20406;-77
2022/02/24 03:46:38;;;;;;;4.80;3.30;;;;;;;7.11;78.22;100619.53;5050295;28;20406;-77
2022/02/24 03:49:03;;;;;;;7.17;4.57;;;;;;;7.09;78.41;100608.97;5052115;28;20408;-78
2022/02/24 03:51:29;;;;;;;10.27;5.33;;;;;;;7.10;78.25;100617.88;5066472;28;20409;-77
2022/02/24 03:53:54;;;;;;;4.83;3.93;;;;;;;7.09;78.40;100613.50;5051384;28;20474;-78
2022/02/24 03:56:19;;;;;;;5.80;3.08;;;;;;;7.07;78.70;100611.06;5035544;28;20399;-77
2022/02/24 03:58:45;;;;;;;2.60;2.10;;;;;;;7.08;78.92;100611.88;5038754;28;20463;-77
2022/02/24 04:01:11;;;;;;;3.93;2.40;;;;;;;7.08;78.55;100603.81;5048723;28;20437;-77
2022/02/24 04:03:36;;;;;;;6.43;2.97;;;;;;;7.07;78.70;100596.75;5059265;28;20492;-77
2022/02/24 04:06:01;;;;;;;3.13;2.40;;;;;;;7.06;78.50;100587.84;5043318;28;20411;-77
2022/02/24 04:08:27;;;;;;;2.77;2.40;;;;;;;7.04;79.03;100594.50;5062798;28;20405;-77
2022/02/24 04:10:52;;;;;;;2.57;2.37;;;;;;;7.04;78.49;100591.81;5048459;28;20478;-77
2022/02/24 04:13:17;;;;;;;3.05;2.50;;;;;;;7.02;79.06;100585.78;5043102;28;20412;-77
2022/02/24 04:15:43;;;;;;;4.13;2.60;;;;;;;7.01;78.93;100584.16;5050967;28;20501;-77
2022/02/24 04:18:09;;;;;;;2.53;2.20;;;;;;;7.00;79.30;100575.25;5051788;28;20405;-77
2022/02/24 04:20:34;;;;;;;2.95;2.20;;;;;;;6.99;79.20;100572.75;5045459;28;20390;-78
2022/02/24 04:22:59;;;;;;;4.03;1.87;;;;;;;6.97;79.07;100575.69;5042780;28;21045;-78
2022/02/24 04:25:24;;;;;;;3.23;2.00;;;;;;;6.97;78.66;100564.91;5036108;28;20908;-77
2022/02/24 04:27:51;;;;;;;4.27;2.10;;;;;;;6.97;78.95;100561.38;5045837;28;20405;-77
2022/02/24 04:30:18;;;;;;;2.40;2.28;;;;;;;6.97;78.90;100558.69;5049284;28;20411;-77
2022/02/24 04:32:44;;;;;;;2.47;2.22;;;;;;;6.95;78.94;100561.59;5051681;28;20436;-77
2022/02/24 04:35:09;;;;;;;2.93;1.97;;;;;;;6.94;78.75;100561.81;5052543;28;20806;-77
2022/02/24 04:37:35;;;;;;;2.55;2.22;;;;;;;6.94;79.14;100553.75;5034984;28;20473;-77
2022/02/24 04:40:02;;;;;;;2.45;2.25;;;;;;;6.94;78.79;100549.19;5047231;28;20818;-77
2022/02/24 04:42:27;;;;;;;2.85;2.17;;;;;;;6.95;78.79;100553.50;5050490;28;20397;-77
2022/02/24 04:44:53;;;;;;;3.53;2.20;;;;;;;6.94;79.29;100540.28;5052554;28;20443;-77
2022/02/24 04:47:18;;;;;;;2.40;2.20;;;;;;;6.91;79.02;100544.22;5043967;28;20413;-77
2022/02/24 04:49:43;;;;;;;13.50;8.00;;;;;;;6.91;78.83;100532.63;5047941;28;20414;-77
2022/02/24 04:52:08;;;;;;;21.53;12.53;;;;;;;6.87;79.07;100542.19;5033099;28;20421;-77
2022/02/24 04:54:34;;;;;;;12.80;7.07;;;;;;;6.83;78.81;100532.88;5049103;28;20452;-78
2022/02/24 04:56:59;;;;;;;6.30;3.90;;;;;;;6.77;79.02;100538.13;5036904;28;20900;-78
2022/02/24 04:59:24;;;;;;;9.27;4.53;;;;;;;6.72;79.10;100543.31;5048304;28;20418;-78
2022/02/24 05:01:50;;;;;;;7.43;5.10;;;;;;;6.68;79.67;100528.66;5044905;28;20406;-77
2022/02/24 05:04:16;;;;;;;7.37;4.07;;;;;;;6.65;79.44;100525.56;5051439;28;20405;-77
2022/02/24 05:06:42;;;;;;;3.22;2.92;;;;;;;6.60;79.30;100520.81;5052215;28;20451;-77
2022/02/24 05:09:07;;;;;;;2.95;2.30;;;;;;;6.56;79.39;100519.59;5035362;28;20391;-77
2022/02/24 05:11:33;;;;;;;7.10;2.60;;;;;;;6.55;79.43;100523.31;5038898;28;20504;-78
2022/02/24 05:13:58;;;;;;;3.60;2.33;;;;;;;6.51;79.23;100514.06;5046156;28;20478;-77
2022/02/24 05:16:23;;;;;;;9.17;5.97;;;;;;;6.48;79.73;100511.81;5071919;28;20425;-77
2022/02/24 05:18:48;;;;;;;6.00;3.77;;;;;;;6.46;79.64;100503.09;5046248;28;20440;-77
2022/02/24 05:21:14;;;;;;;6.57;5.67;;;;;;;6.42;79.55;100504.56;5038626;28;20464;-79
2022/02/24 05:23:40;;;;;;;4.37;3.67;;;;;;;6.41;79.60;100499.41;5050384;28;20406;-77
2022/02/24 05:26:05;;;;;;;6.88;5.22;;;;;;;6.36;79.45;100502.75;5046712;28;20437;-77
2022/02/24 05:28:30;;;;;;;3.20;2.90;;;;;;;6.31;79.89;100494.50;5045779;28;20546;-78
2022/02/24 05:30:59;;;;;;;10.10;6.13;;;;;;;6.29;80.05;100488.50;5046415;28;20410;-77
2022/02/24 05:33:25;;;;;;;9.13;5.78;;;;;;;6.25;79.43;100480.06;5052090;28;20425;-77
2022/02/24 05:35:51;;;;;;;13.07;7.32;;;;;;;6.22;80.00;100483.16;5045830;28;20402;-77
2022/02/24 05:38:16;;;;;;;5.07;4.13;;;;;;;6.21;79.60;100486.06;5050867;28;20417;-78
2022/02/24 05:40:41;;;;;;;7.83;5.27;;;;;;;6.18;79.92;100483.81;5046384;28;20393;-78
2022/02/24 05:43:07;;;;;;;3.37;2.97;;;;;;;6.17;80.03;100479.47;5049674;28;20418;-78
2022/02/24 05:45:32;;;;;;;5.37;2.70;;;;;;;6.13;79.79;100481.75;5050153;28;20417;-78
2022/02/24 05:47:57;;;;;;;6.00;2.93;;;;;;;6.11;79.88;100493.78;5053180;28;20777;-77
2022/02/24 05:50:22;;;;;;;5.90;3.37;;;;;;;6.06;79.96;100501.69;5041153;28;20469;-79
2022/02/24 05:52:48;;;;;;;8.07;5.40;;;;;;;6.04;79.73;100493.00;5042360;28;20433;-78
2022/02/24 05:55:13;;;;;;;10.37;4.47;;;;;;;6.01;79.90;100491.56;5038025;28;20404;-79
2022/02/24 05:57:44;;;;;;;5.78;4.60;;;;;;;6.00;80.43;100494.44;5039490;28;20498;-80
2022/02/24 06:00:10;;;;;;;7.15;4.60;;;;;;;6.00;80.40;100491.75;5042324;28;20869;-80
2022/02/24 06:02:36;;;;;;;5.60;3.70;;;;;;;6.02;80.35;100484.31;5047730;28;20411;-79
2022/02/24 06:05:01;;;;;;;6.07;3.87;;;;;;;6.03;80.19;100488.66;5045871;28;20446;-77
2022/02/24 06:07:26;;;;;;;7.32;4.28;;;;;;;6.02;80.36;100482.47;5042516;28;20405;-79
2022/02/24 06:09:51;;;;;;;4.23;3.07;;;;;;;6.06;80.28;100493.63;5045185;28;20945;-79
2022/02/24 06:12:17;;;;;;;4.65;2.88;;;;;;;6.06;80.63;100480.97;5048692;28;20399;-78
2022/02/24 06:14:42;;;;;;;3.53;2.50;;;;;;;6.03;79.96;100483.25;5052853;28;20399;-77
2022/02/24 06:17:07;;;;;;;3.60;2.83;;;;;;;6.09;80.20;100479.75;5048339;28;20401;-77
2022/02/24 06:19:33;;;;;;;2.90;2.70;;;;;;;6.11;79.83;100474.97;5043516;28;20517;-77
2022/02/24 06:21:58;;;;;;;4.70;3.27;;;;;;;6.12;80.00;100473.91;5047088;28;20422;-78
2022/02/24 06:24:23;;;;;;;6.13;4.30;;;;;;;6.11;79.47;100475.78;5052717;28;20420;-78
2022/02/24 06:26:48;;;;;;;4.47;4.07;;;;;;;6.09;79.91;100463.59;5051082;28;20903;-77
2022/02/24 06:29:14;;;;;;;6.07;3.73;;;;;;;6.03;80.25;100459.88;5049430;28;20753;-78
2022/02/24 06:31:40;;;;;;;7.10;4.65;;;;;;;5.99;79.93;100450.63;5050036;28;20398;-78
2022/02/24 06:34:05;;;;;;;5.15;4.32;;;;;;;5.89;79.83;100455.63;5045701;28;20399;-78
2022/02/24 06:36:30;;;;;;;3.77;2.10;;;;;;;5.86;80.19;100444.47;5029810;28;20395;-78
2022/02/24 06:38:57;;;;;;;3.53;2.47;;;;;;;5.87;80.12;100449.63;5048770;28;20413;-77
2022/02/24 06:41:23;;;;;;;3.45;2.60;;;;;;;5.87;80.05;100432.66;5034360;28;20449;-77
2022/02/24 06:43:48;;;;;;;5.07;3.83;;;;;;;5.87;80.14;100440.72;5056294;28;20405;-77
2022/02/24 06:46:13;;;;;;;4.77;3.10;;;;;;;5.89;80.37;100444.88;5050904;28;20467;-77
2022/02/24 06:48:42;;;;;;;2.57;2.37;;;;;;;5.92;80.06;100439.06;5063341;28;21119;-77
2022/02/24 06:51:07;;;;;;;6.78;2.72;;;;;;;5.94;80.10;100430.75;5058662;28;20405;-77
2022/02/24 06:53:32;;;;;;;4.40;3.53;;;;;;;5.94;79.61;100430.75;5053198;28;20409;-77
2022/02/24 06:55:57;;;;;;;3.60;2.63;;;;;;;5.99;79.54;100426.41;5054813;28;20458;-77
2022/02/24 06:58:25;;;;;;;5.07;3.00;;;;;;;6.02;79.41;100428.66;5054367;28;20424;-77
2022/02/24 07:00:51;;;;;;;4.35;2.97;;;;;;;6.06;79.33;100429.84;5052645;28;20741;-78
2022/02/24 07:03:16;;;;;;;4.70;2.80;;;;;;;6.09;79.08;100424.03;5059215;28;20394;-77
2022/02/24 07:05:41;;;;;;;4.63;2.70;;;;;;;6.09;78.65;100417.84;5047514;28;20874;-77
2022/02/24 07:08:07;;;;;;;4.80;3.70;;;;;;;6.12;79.04;100420.94;5054960;28;20500;-77
2022/02/24 07:10:32;;;;;;;4.00;2.90;;;;;;;6.13;78.73;100414.50;5062157;28;20401;-78
2022/02/24 07:12:57;;;;;;;5.13;3.20;;;;;;;6.16;78.94;100414.06;5067272;28;20798;-77
2022/02/24 07:15:23;;;;;;;4.47;3.60;;;;;;;6.19;78.66;100419.00;5051499;28;20432;-77
2022/02/24 07:17:48;;;;;;;6.20;2.90;;;;;;;6.21;78.96;100421.50;5053313;28;20404;-78
2022/02/24 07:20:15;;;;;;;5.07;2.80;;;;;;;6.23;78.60;100419.41;5053232;28;20424;-78
2022/02/24 07:22:41;;;;;;;7.35;2.75;;;;;;;6.27;78.25;100415.25;5045973;28;20407;-77
2022/02/24 07:25:07;;;;;;;4.45;2.63;;;;;;;6.31;78.04;100412.94;5042403;28;20413;-77
2022/02/24 07:27:34;;;;;;;8.52;2.90;;;;;;;6.33;78.16;100411.66;5077301;28;20407;-77
2022/02/24 07:30:04;;;;;;;8.02;3.30;;;;;;;6.39;78.70;100404.59;5067318;28;20480;-77
2022/02/24 07:32:30;;;;;;;5.00;2.90;;;;;;;6.42;78.61;100407.66;5060057;28;20409;-77
2022/02/24 07:34:55;;;;;;;4.70;3.30;;;;;;;6.50;78.39;100401.19;5068385;28;20409;-77
2022/02/24 07:37:20;;;;;;;4.33;2.87;;;;;;;6.60;78.14;100401.53;5042163;28;20483;-77
2022/02/24 07:39:45;;;;;;;6.30;2.97;;;;;;;6.64;78.19;100398.19;5042098;28;20423;-78
2022/02/24 07:42:11;;;;;;;5.57;3.27;;;;;;;6.71;78.43;100401.63;5047623;28;20479;-78
2022/02/24 07:44:36;;;;;;;6.70;2.77;;;;;;;6.77;77.99;100399.94;5047078;28;20418;-78
2022/02/24 07:47:02;;;;;;;4.97;3.00;;;;;;;6.84;78.13;100395.31;5038248;28;20408;-78
2022/02/24 07:49:28;;;;;;;5.57;3.22;;;;;;;6.88;77.94;100385.75;5041155;28;20405;-78
2022/02/24 07:51:53;;;;;;;4.93;3.23;;;;;;;6.94;78.07;100381.31;5035555;28;20446;-77
2022/02/24 07:54:20;;;;;;;4.43;3.67;;;;;;;6.90;78.44;100388.19;5034766;28;20413;-78
2022/02/24 07:56:46;;;;;;;8.00;4.05;;;;;;;6.97;77.95;100386.25;5048555;28;20420;-78
2022/02/24 07:59:13;;;;;;;6.55;4.28;;;;;;;7.06;77.81;100385.75;5046827;28;20416;-77
2022/02/24 08:01:38;;;;;;;8.82;4.30;;;;;;;7.20;77.92;100386.41;5033356;28;20395;-78
2022/02/24 08:04:04;;;;;;;5.40;3.80;;;;;;;7.31;77.04;100381.09;5050828;28;21038;-77
2022/02/24 08:06:29;;;;;;;7.77;4.07;;;;;;;7.43;76.99;100383.03;5042291;28;20414;-78
2022/02/24 08:08:54;;;;;;;6.83;3.93;;;;;;;7.49;76.72;100382.13;5041766;28;20726;-78
2022/02/24 08:11:20;;;;;;;10.23;4.60;;;;;;;7.53;76.19;100381.47;5043225;28;20405;-78
2022/02/24 08:13:45;;;;;;;7.67;6.17;;;;;;;7.58;76.29;100381.59;5035843;28;20407;-78
2022/02/24 08:16:10;;;;;;;8.47;5.17;;;;;;;7.63;76.65;100380.94;5035695;28;20445;-78
2022/02/24 08:18:35;;;;;;;8.80;5.53;;;;;;;7.71;76.09;100375.19;5045657;28;20419;-78
2022/02/24 08:21:01;;;;;;;9.50;5.10;;;;;;;7.79;75.24;100369.50;5065296;28;20415;-78
2022/02/24 08:23:26;;;;;;;11.27;5.23;;;;;;;7.95;75.45;100365.31;5037507;28;20418;-78
2022/02/24 08:25:51;;;;;;;12.30;8.40;;;;;;;8.06;75.07;100365.38;5042240;28;20426;-78
2022/02/24 08:28:17;;;;;;;5.53;4.17;;;;;;;8.26;74.20;100354.28;5038432;28;20407;-78
2022/02/24 08:30:42;;;;;;;10.23;6.77;;;;;;;8.54;73.53;100367.94;5037955;28;20395;-78
2022/02/24 08:33:07;;;;;;;8.07;3.90;;;;;;;8.69;72.30;100359.38;5032835;28;20786;-78
2022/02/24 08:35:33;;;;;;;5.63;4.03;;;;;;;8.81;71.33;100361.03;5067977;28;20874;-78
2022/02/24 08:38:00;;;;;;;5.22;4.50;;;;;;;8.90;71.47;100350.66;5050267;28;21002;-77
2022/02/24 08:40:25;;;;;;;7.07;3.90;;;;;;;8.89;70.20;100346.34;5061438;28;20421;-78
2022/02/24 08:42:51;;;;;;;5.50;4.07;;;;;;;8.92;71.34;100339.63;5040663;28;20504;-77
2022/02/24 08:45:18;;;;;;;5.67;3.90;;;;;;;8.92;71.63;100342.34;5035308;28;20415;-78
2022/02/24 08:47:43;;;;;;;3.70;3.40;;;;;;;8.98;71.25;100336.81;5072316;28;20395;-78
2022/02/24 08:50:10;;;;;;;4.63;3.40;;;;;;;9.08;71.08;100336.19;5034359;28;20418;-78
2022/02/24 08:52:36;;;;;;;3.92;3.50;;;;;;;9.26;70.38;100327.91;5057172;28;20397;-78
2022/02/24 08:55:01;;;;;;;7.95;3.30;;;;;;;9.51;69.27;100328.44;5036206;28;20407;-78
2022/02/24 08:57:26;;;;;;;6.18;3.40;;;;;;;9.58;69.13;100329.09;5034787;28;20447;-78
2022/02/24 08:59:52;;;;;;;4.77;3.40;;;;;;;9.54;69.61;100319.84;5046877;28;20420;-78
2022/02/24 09:02:18;;;;;;;4.23;2.80;;;;;;;9.59;69.16;100328.03;5043433;28;20877;-78
2022/02/24 09:04:43;;;;;;;3.88;2.90;;;;;;;9.72;69.54;100322.34;5036523;28;20407;-77
2022/02/24 09:07:08;;;;;;;3.43;3.13;;;;;;;9.92;68.46;100321.88;5035868;28;20438;-77
2022/02/24 09:09:34;;;;;;;3.40;2.80;;;;;;;10.27;66.85;100322.50;5044419;28;20415;-78
2022/02/24 09:11:59;;;;;;;5.23;2.97;;;;;;;10.38;66.42;100320.78;5056610;28;20896;-78
2022/02/24 09:14:25;;;;;;;6.07;3.47;;;;;;;10.77;66.20;100317.06;5038432;28;20406;-78
2022/02/24 09:16:50;;;;;;;3.45;2.97;;;;;;;11.49;65.10;100306.06;5031366;28;20425;-78
2022/02/24 09:19:16;;;;;;;6.40;3.30;;;;;;;12.67;61.46;100304.97;5057260;28;20927;-78
2022/02/24 09:21:41;;;;;;;4.60;3.00;;;;;;;13.30;58.85;100312.13;5045266;28;20420;-78
2022/02/24 09:24:07;;;;;;;6.17;3.00;;;;;;;13.10;58.81;100303.06;5046358;28;20451;-78
2022/02/24 09:26:33;;;;;;;2.70;2.50;;;;;;;12.91;59.12;100298.00;5034968;28;20805;-78
2022/02/24 09:28:59;;;;;;;3.03;2.83;;;;;;;12.91;59.78;100300.75;5030505;28;20523;-78
2022/02/24 09:31:24;;;;;;;2.38;2.17;;;;;;;14.49;54.74;100300.06;5038887;28;20398;-78
2022/02/24 09:33:50;;;;;;;3.37;2.20;;;;;;;14.35;54.60;100293.53;5042707;28;20409;-78
2022/02/24 09:36:15;;;;;;;2.77;2.00;;;;;;;14.60;54.36;100289.94;5039637;28;20910;-78
2022/02/24 09:38:41;;;;;;;3.43;2.60;;;;;;;14.36;54.05;100285.06;5047658;28;20426;-78
2022/02/24 09:41:08;;;;;;;1.85;1.70;;;;;;;14.41;54.42;100287.81;5037675;28;20479;-78
2022/02/24 09:43:36;;;;;;;3.13;1.50;;;;;;;14.17;54.10;100272.25;5040785;28;20394;-78
2022/02/24 09:46:04;;;;;;;4.75;2.20;;;;;;;13.80;55.21;100267.03;5044510;28;20418;-78
2022/02/24 09:48:33;;;;;;;2.80;1.63;;;;;;;13.68;55.86;100261.03;5044805;28;20414;-78
2022/02/24 09:51:00;;;;;;;2.47;1.52;;;;;;;13.84;56.00;100255.34;5041673;28;20476;-78
2022/02/24 09:53:27;;;;;;;2.13;1.95;;;;;;;14.37;53.46;100254.00;5039319;28;20405;-78
2022/02/24 09:55:53;;;;;;;1.70;1.60;;;;;;;14.12;53.65;100248.53;5044088;28;20911;-79
2022/02/24 09:58:19;;;;;;;3.13;1.77;;;;;;;13.45;55.04;100246.84;5033708;28;20438;-78
2022/02/24 10:00:44;;;;;;;2.90;1.92;;;;;;;13.25;55.92;100248.69;5049465;28;20413;-79
2022/02/24 10:03:30;;;;;;;2.80;2.00;;;;;;;13.01;56.64;100248.28;5039671;28;20419;-78
2022/02/24 10:05:57;;;;;;;3.53;1.90;;;;;;;12.52;58.09;100255.09;5054217;28;20929;-78
2022/02/24 10:08:29;;;;;;;2.45;1.65;;;;;;;12.41;58.79;100260.47;5046305;28;20399;-78
2022/02/24 10:10:55;;;;;;;3.75;1.80;;;;;;;12.16;58.43;100249.41;5037884;28;20413;-78
2022/02/24 10:13:21;;;;;;;3.25;2.67;;;;;;;12.00;58.95;100238.69;5038520;28;20885;-77
2022/02/24 10:15:59;;;;;;;3.30;3.00;;;;;;;12.04;59.19;100239.81;5078138;28;20424;-78
2022/02/24 10:18:28;;;;;;;2.47;2.28;;;;;;;12.07;58.65;100236.59;5052981;28;20409;-78
2022/02/24 10:21:03;;;;;;;7.95;4.30;;;;;;;12.25;58.68;100239.69;5045871;28;20403;-78
2022/02/24 10:23:39;;;;;;;5.95;3.30;;;;;;;12.16;58.31;100244.00;5038113;28;20411;-78
2022/02/24 10:26:10;;;;;;;7.93;2.22;;;;;;;12.23;57.05;100236.44;5038708;28;20515;-79
2022/02/24 10:28:50;;;;;;;4.43;2.40;;;;;;;12.30;56.55;100244.38;5050918;28;20422;-78
2022/02/24 10:31:26;;;;;;;2.97;2.20;;;;;;;12.17;56.85;100239.38;5038512;28;20967;-77
2022/02/24 10:34:04;;;;;;;4.60;3.28;;;;;;;11.94;57.44;100226.97;5053762;28;20398;-78
2022/02/24 10:36:34;;;;;;;3.03;2.03;;;;;;;12.10;56.48;100226.03;5046389;28;20407;-79
2022/02/24 10:39:33;;;;;;;3.88;3.15;;;;;;;11.92;57.80;100224.50;5045305;28;20412;-78
2022/02/24 10:42:02;;;;;;;5.22;4.43;;;;;;;12.02;58.08;100226.47;5052484;28;20402;-78
2022/02/24 10:44:27;;;;;;;5.18;2.20;;;;;;;12.12;57.41;100221.13;5045097;28;20478;-78
2022/02/24 10:47:07;;;;;;;5.77;3.33;;;;;;;12.00;57.86;100222.41;5070183;28;20530;-78
2022/02/24 10:49:37;;;;;;;3.75;2.63;;;;;;;12.08;57.44;100205.63;5044302;28;20431;-78
2022/02/24 10:52:19;;;;;;;3.40;2.40;;;;;;;12.10;57.64;100207.00;5047313;28;20420;-78
2022/02/24 10:54:59;;;;;;;3.42;2.05;;;;;;;12.07;57.71;100206.72;5066462;28;20407;-78
2022/02/24 10:57:27;;;;;;;3.83;3.42;;;;;;;12.00;57.31;100206.09;5040803;28;20406;-78
2022/02/24 10:59:54;;;;;;;5.72;3.50;;;;;;;11.85;58.36;100207.66;5047646;28;20833;-78
2022/02/24 11:02:20;;;;;;;7.25;3.72;;;;;;;11.85;58.48;100193.25;5037672;28;20406;-78
2022/02/24 11:04:46;;;;;;;7.95;3.33;;;;;;;12.08;56.94;100197.50;5077225;28;20478;-79
2022/02/24 11:07:12;;;;;;;6.88;3.13;;;;;;;12.30;56.34;100190.03;5049477;28;20411;-78
2022/02/24 11:09:40;;;;;;;11.32;5.30;;;;;;;12.68;55.81;100186.16;5039748;28;20893;-78
2022/02/24 11:12:07;;;;;;;12.40;5.05;;;;;;;12.94;54.85;100171.56;5047287;28;20402;-79
2022/02/24 11:14:45;;;;;;;5.13;2.80;;;;;;;13.05;54.30;100166.97;5044960;28;20463;-78
2022/02/24 11:17:12;;;;;;;4.63;3.42;;;;;;;13.04;54.25;100165.34;5052848;28;20752;-78
2022/02/24 11:19:39;;;;;;;4.47;2.50;;;;;;;12.84;54.52;100157.94;5056538;28;20500;-78
2022/02/24 11:22:06;;;;;;;3.07;1.77;;;;;;;12.65;52.72;100163.00;5080944;28;20405;-78
2022/02/24 11:24:33;;;;;;;7.15;2.22;;;;;;;12.26;54.90;100156.28;5037315;28;20501;-78
2022/02/24 11:27:06;;;;;;;2.92;1.52;;;;;;;11.99;55.59;100164.53;5036796;28;20405;-78